createdAt,value
2017-10-29T00:00:02.539Z,13.8
2017-10-29T00:01:02.576Z,13.8
2017-10-29T00:02:02.543Z,14.2
2017-10-29T00:03:02.544Z,13.9
2017-10-29T00:04:02.547Z,13.7
2017-10-29T00:05:02.534Z,14.6
2017-10-29T00:06:02.540Z,14.6
2017-10-29T00:07:02.589Z,14.2
2017-10-29T00:08:02.519Z,14.5
2017-10-29T00:09:37.144Z,14.1
2017-10-29T00:10:02.522Z,13.4
2017-10-29T00:11:02.550Z,13.2
2017-10-29T00:12:02.586Z,12.7
2017-10-29T00:13:02.531Z,13
2017-10-29T00:14:02.528Z,12.8
2017-10-29T00:15:02.535Z,12.4
2017-10-29T00:16:02.533Z,12.2
2017-10-29T00:17:02.571Z,12.2
2017-10-29T00:18:02.532Z,12.5
2017-10-29T00:19:02.547Z,12.9
2017-10-29T00:20:02.526Z,13
2017-10-29T00:21:02.536Z,12.7
2017-10-29T00:22:02.599Z,13.2
2017-10-29T00:23:02.543Z,13.4
2017-10-29T00:24:02.527Z,14
2017-10-29T00:25:02.534Z,14.2
2017-10-29T00:26:02.544Z,14.4
2017-10-29T00:27:02.565Z,14.9
2017-10-29T00:28:02.528Z,14.8
2017-10-29T00:29:02.530Z,15
2017-10-29T00:30:02.536Z,15.1
2017-10-29T00:31:02.531Z,15
2017-10-29T00:32:02.566Z,14.8
2017-10-29T00:33:02.522Z,14.9
2017-10-29T00:34:02.520Z,14.7
2017-10-29T00:35:02.531Z,14.3
2017-10-29T00:36:02.538Z,13.7
2017-10-29T00:37:02.593Z,13.3
2017-10-29T00:38:02.521Z,13.1
2017-10-29T00:39:02.534Z,12.8
2017-10-29T00:40:02.515Z,13.8
2017-10-29T00:41:02.530Z,14.1
2017-10-29T00:42:02.575Z,14.4
2017-10-29T00:43:02.518Z,13.8
2017-10-29T00:44:02.522Z,13.6
2017-10-29T00:45:02.530Z,14.1
2017-10-29T00:46:02.518Z,13.8
2017-10-29T00:47:02.578Z,14.5
2017-10-29T00:48:02.515Z,14.4
2017-10-29T00:49:02.520Z,14.3
2017-10-29T00:50:03.502Z,14.3
2017-10-29T00:51:02.525Z,14.1
2017-10-29T00:52:02.556Z,14.2
2017-10-29T00:53:02.519Z,14
2017-10-29T00:54:02.510Z,14.9
2017-10-29T00:55:02.508Z,15.2
2017-10-29T00:56:02.598Z,15.4
2017-10-29T00:57:02.558Z,15.5
2017-10-29T00:58:02.539Z,15.7
2017-10-29T00:59:02.509Z,15.8
2017-10-29T01:00:02.537Z,16.2
2017-10-29T01:01:02.541Z,16
2017-10-29T01:02:02.512Z,15.7
2017-10-29T01:03:02.505Z,15
2017-10-29T01:04:02.516Z,14.2
2017-10-29T01:05:02.500Z,13.7
2017-10-29T01:06:02.507Z,13.7
2017-10-29T01:07:02.532Z,13.5
2017-10-29T01:08:02.500Z,13.5
2017-10-29T01:09:02.526Z,13.4
2017-10-29T01:10:02.509Z,13.2
2017-10-29T01:11:02.528Z,13.1
2017-10-29T01:12:02.503Z,13.1
2017-10-29T01:13:02.537Z,12.7
2017-10-29T01:14:02.527Z,12.2
2017-10-29T01:15:02.515Z,11.7
2017-10-29T01:16:02.523Z,11.7
2017-10-29T01:17:02.502Z,11.3
2017-10-29T01:18:02.525Z,10.7
2017-10-29T01:19:02.553Z,10.7
2017-10-29T01:20:02.500Z,10.7
2017-10-29T01:21:02.531Z,10.8
2017-10-29T01:22:02.521Z,10.4
2017-10-29T01:23:02.497Z,10
2017-10-29T01:24:02.500Z,9.8
2017-10-29T01:25:02.508Z,10.2
2017-10-29T01:26:02.506Z,10
2017-10-29T01:27:02.495Z,10.1
2017-10-29T01:28:02.519Z,10.3
2017-10-29T01:29:02.540Z,10.9
2017-10-29T01:30:02.524Z,10.8
2017-10-29T01:31:02.500Z,10.8
2017-10-29T01:32:02.495Z,10.9
2017-10-29T01:33:02.494Z,10.6
2017-10-29T01:34:02.528Z,11.3
2017-10-29T01:35:02.500Z,11.4
2017-10-29T01:36:02.489Z,11
2017-10-29T01:37:02.493Z,10.9
2017-10-29T01:38:02.521Z,10.9
2017-10-29T01:39:02.498Z,10.9
2017-10-29T01:40:02.517Z,11.2
2017-10-29T01:41:02.520Z,10.7
2017-10-29T01:42:02.539Z,10.6
2017-10-29T01:43:02.520Z,10.8
2017-10-29T01:44:02.519Z,11.1
2017-10-29T01:45:02.497Z,10.7
2017-10-29T01:46:02.526Z,11.2
2017-10-29T01:47:02.510Z,11.2
2017-10-29T01:48:02.503Z,10.7
2017-10-29T01:49:02.514Z,10
2017-10-29T01:50:02.498Z,9.7
2017-10-29T01:51:02.524Z,9.5
2017-10-29T01:52:02.516Z,9.2
2017-10-29T01:53:02.488Z,8.5
2017-10-29T01:54:02.484Z,8.1
2017-10-29T01:55:02.486Z,8.1
2017-10-29T01:56:02.517Z,8.2
2017-10-29T01:57:02.491Z,8.6
2017-10-29T01:58:02.491Z,8.7
2017-10-29T01:59:02.510Z,8.7
2017-10-29T02:00:02.493Z,8.8
2017-10-29T02:01:02.521Z,8.9
2017-10-29T02:02:02.484Z,8.9
2017-10-29T02:03:02.512Z,9
2017-10-29T02:04:02.489Z,8.8
2017-10-29T02:05:02.511Z,9
2017-10-29T02:06:02.489Z,9.1
2017-10-29T02:07:02.490Z,9.1
2017-10-29T02:08:02.506Z,9.3
2017-10-29T02:09:02.480Z,8.8
2017-10-29T02:10:02.484Z,9.2
2017-10-29T02:11:02.512Z,9.4
2017-10-29T02:12:02.483Z,9.2
2017-10-29T02:13:02.486Z,9.9
2017-10-29T02:14:02.509Z,10.7
2017-10-29T02:15:02.515Z,10.9
2017-10-29T02:16:02.497Z,11
2017-10-29T02:17:02.505Z,11.6
2017-10-29T02:18:02.506Z,11.7
2017-10-29T02:19:02.505Z,12.6
2017-10-29T02:20:02.477Z,12.8
2017-10-29T02:21:02.470Z,12
2017-10-29T02:22:02.484Z,12.1
2017-10-29T02:23:02.490Z,12
2017-10-29T02:24:02.509Z,12.2
2017-10-29T02:25:02.513Z,12
2017-10-29T02:26:02.507Z,12.7
2017-10-29T02:27:02.479Z,13.4
2017-10-29T02:28:02.483Z,13.1
2017-10-29T02:29:02.479Z,13.7
2017-10-29T02:30:02.481Z,13.8
2017-10-29T02:31:02.539Z,13.4
2017-10-29T02:32:02.479Z,12.6
2017-10-29T02:33:02.525Z,12.1
2017-10-29T02:34:02.476Z,12.9
2017-10-29T02:35:02.472Z,12.8
2017-10-29T02:36:02.476Z,12.1
2017-10-29T02:37:02.499Z,12
2017-10-29T02:38:02.519Z,12.2
2017-10-29T02:39:02.500Z,13
2017-10-29T02:40:02.478Z,13.4
2017-10-29T02:41:02.485Z,13.8
2017-10-29T02:42:02.476Z,14.2
2017-10-29T02:43:02.550Z,14.1
2017-10-29T02:44:02.500Z,14
2017-10-29T02:45:02.507Z,14.1
2017-10-29T02:46:02.504Z,14
2017-10-29T02:47:02.470Z,14
2017-10-29T02:48:02.542Z,13.2
2017-10-29T02:49:02.602Z,13
2017-10-29T02:50:02.453Z,13.1
2017-10-29T02:51:02.493Z,13.1
2017-10-29T02:52:02.469Z,13.4
2017-10-29T02:53:02.506Z,13.2
2017-10-29T02:54:02.478Z,12.8
2017-10-29T02:55:02.496Z,13.3
2017-10-29T02:56:02.492Z,12.6
2017-10-29T02:57:02.493Z,13.5
2017-10-29T02:58:02.538Z,14.6
2017-10-29T02:59:02.505Z,14.3
2017-10-29T03:00:02.468Z,14
2017-10-29T03:01:02.490Z,14.5
2017-10-29T03:02:02.475Z,14.4
2017-10-29T03:03:02.538Z,14.5
2017-10-29T03:04:02.550Z,14.9
2017-10-29T03:05:02.496Z,15.3
2017-10-29T03:06:02.466Z,16.1
2017-10-29T03:07:02.498Z,15.9
2017-10-29T03:08:02.562Z,15.7
2017-10-29T03:09:02.486Z,14.9
2017-10-29T03:10:02.490Z,14.6
2017-10-29T03:11:02.485Z,14.6
2017-10-29T03:12:02.467Z,14
2017-10-29T03:13:02.558Z,13
2017-10-29T03:14:02.471Z,12.4
2017-10-29T03:15:02.501Z,11.7
2017-10-29T03:16:02.465Z,11.9
2017-10-29T03:17:02.467Z,12.6
2017-10-29T03:18:02.508Z,12.4
2017-10-29T03:19:02.465Z,12.7
2017-10-29T03:20:02.483Z,12.3
2017-10-29T03:21:02.466Z,11.8
2017-10-29T03:22:02.510Z,11.3
2017-10-29T03:23:02.497Z,11
2017-10-29T03:24:02.488Z,10.8
2017-10-29T03:25:02.494Z,10.6
2017-10-29T03:26:02.494Z,10.6
2017-10-29T03:27:02.491Z,10.3
2017-10-29T03:28:02.456Z,10
2017-10-29T03:29:02.486Z,10.1
2017-10-29T03:30:02.503Z,10.3
2017-10-29T03:31:02.488Z,10.2
2017-10-29T03:32:02.486Z,10.1
2017-10-29T03:33:02.493Z,10
2017-10-29T03:34:02.491Z,10
2017-10-29T03:35:02.474Z,9.7
2017-10-29T03:36:02.492Z,9.9
2017-10-29T03:37:02.490Z,10.7
2017-10-29T03:38:02.459Z,10.8
2017-10-29T03:39:02.459Z,10.4
2017-10-29T03:40:02.484Z,11
2017-10-29T03:41:02.483Z,10.9
2017-10-29T03:42:02.485Z,11
2017-10-29T03:43:02.465Z,10.8
2017-10-29T03:44:02.446Z,10.9
2017-10-29T03:45:02.477Z,11.5
2017-10-29T03:46:02.489Z,11.9
2017-10-29T03:47:02.477Z,11.6
2017-10-29T03:48:02.473Z,12.1
2017-10-29T03:49:02.452Z,12.3
2017-10-29T03:50:02.455Z,12
2017-10-29T03:51:02.455Z,12.3
2017-10-29T03:52:02.474Z,12.6
2017-10-29T03:53:02.468Z,12.5
2017-10-29T03:54:02.444Z,12.8
2017-10-29T03:55:02.473Z,12.7
2017-10-29T03:56:02.447Z,13.5
2017-10-29T03:57:02.481Z,13.3
2017-10-29T03:58:02.446Z,12.9
2017-10-29T03:59:02.481Z,12.7
2017-10-29T04:00:02.493Z,12.4
2017-10-29T04:01:02.453Z,12.9
2017-10-29T04:02:02.473Z,12.8
2017-10-29T04:03:02.447Z,12.9
2017-10-29T04:04:02.456Z,13.2
2017-10-29T04:05:02.470Z,13.5
2017-10-29T04:06:02.473Z,13.9
2017-10-29T04:07:02.448Z,14.1
2017-10-29T04:08:02.443Z,13.8
2017-10-29T04:09:02.494Z,13.6
2017-10-29T04:10:02.482Z,13.4
2017-10-29T04:11:02.425Z,13
2017-10-29T04:12:02.446Z,12.7
2017-10-29T04:13:02.466Z,12.5
2017-10-29T04:14:02.502Z,12.3
2017-10-29T04:15:02.445Z,12.8
2017-10-29T04:16:02.446Z,12.8
2017-10-29T04:17:02.471Z,13.1
2017-10-29T04:18:02.470Z,13.3
2017-10-29T04:19:02.517Z,13.9
2017-10-29T04:20:02.513Z,14.6
2017-10-29T04:21:02.447Z,15.1
2017-10-29T04:22:02.475Z,15.3
2017-10-29T04:23:02.468Z,15.5
2017-10-29T04:24:02.520Z,15.1
2017-10-29T04:25:02.434Z,14.9
2017-10-29T04:26:02.467Z,14.9
2017-10-29T04:27:02.470Z,14.8
2017-10-29T04:28:02.443Z,14.9
2017-10-29T04:29:02.499Z,16.3
2017-10-29T04:30:02.465Z,16.7
2017-10-29T04:31:02.466Z,16.5
2017-10-29T04:32:02.440Z,16.2
2017-10-29T04:33:02.461Z,15.7
2017-10-29T04:34:02.529Z,15.7
2017-10-29T04:35:02.456Z,16.2
2017-10-29T04:36:02.462Z,16.2
2017-10-29T04:37:02.457Z,15.7
2017-10-29T04:38:02.438Z,15.2
2017-10-29T04:39:02.507Z,14.8
2017-10-29T04:40:02.457Z,15
2017-10-29T04:41:02.448Z,15.4
2017-10-29T04:42:02.444Z,15.3
2017-10-29T04:43:02.465Z,16
2017-10-29T04:44:02.435Z,17.2
2017-10-29T04:45:02.471Z,17.5
2017-10-29T04:46:02.451Z,17.8
2017-10-29T04:47:02.452Z,18.5
2017-10-29T04:48:02.433Z,19.1
2017-10-29T04:49:02.438Z,19.4
2017-10-29T04:50:02.438Z,19.8
2017-10-29T04:51:02.433Z,19.7
2017-10-29T04:52:02.451Z,20.6
2017-10-29T04:53:02.459Z,21.4
2017-10-29T04:54:02.458Z,21.9
2017-10-29T04:55:02.469Z,22.8
2017-10-29T04:56:02.427Z,23.5
2017-10-29T04:57:02.459Z,24.6
2017-10-29T04:58:02.429Z,25.3
2017-10-29T04:59:03.368Z,26
2017-10-29T05:00:02.432Z,27
2017-10-29T05:01:02.441Z,28
2017-10-29T05:02:02.441Z,27.7
2017-10-29T05:03:02.455Z,27.8
2017-10-29T05:04:02.458Z,28.7
2017-10-29T05:05:02.451Z,29.6
2017-10-29T05:06:02.423Z,30.2
2017-10-29T05:07:02.495Z,30.4
2017-10-29T05:08:02.453Z,30.5
2017-10-29T05:09:02.448Z,29.7
2017-10-29T05:10:02.480Z,29.6
2017-10-29T05:11:02.433Z,29.4
2017-10-29T05:12:02.454Z,29.5
2017-10-29T05:13:02.428Z,29.3
2017-10-29T05:14:02.432Z,29.1
2017-10-29T05:15:03.069Z,28.9
2017-10-29T05:16:02.445Z,27.9
2017-10-29T05:17:02.423Z,27.7
2017-10-29T05:18:02.447Z,27.8
2017-10-29T05:19:02.430Z,27.1
2017-10-29T05:20:02.474Z,26
2017-10-29T05:21:02.420Z,25.2
2017-10-29T05:22:02.424Z,25
2017-10-29T05:23:02.440Z,24.1
2017-10-29T05:24:02.425Z,23.8
2017-10-29T05:25:02.516Z,23.2
2017-10-29T05:26:02.447Z,23.4
2017-10-29T05:27:02.451Z,22.3
2017-10-29T05:28:02.430Z,22.3
2017-10-29T05:29:02.422Z,22.2
2017-10-29T05:30:02.492Z,21.9
2017-10-29T05:31:02.441Z,21.6
2017-10-29T05:32:02.434Z,21.2
2017-10-29T05:33:02.422Z,21.8
2017-10-29T05:34:02.420Z,22.9
2017-10-29T05:35:02.489Z,23.8
2017-10-29T05:36:02.430Z,24.3
2017-10-29T05:37:02.436Z,24.4
2017-10-29T05:38:02.428Z,24.6
2017-10-29T05:39:02.429Z,24.2
2017-10-29T05:40:02.523Z,23.8
2017-10-29T05:41:02.427Z,23.7
2017-10-29T05:42:02.441Z,23.4
2017-10-29T05:43:02.417Z,22.6
2017-10-29T05:44:02.442Z,22.6
2017-10-29T05:45:02.509Z,23.1
2017-10-29T05:46:02.448Z,22.9
2017-10-29T05:47:02.442Z,23.1
2017-10-29T05:48:12.332Z,23
2017-10-29T05:49:02.456Z,22.8
2017-10-29T05:50:02.482Z,22.3
2017-10-29T05:51:02.399Z,24.1
2017-10-29T05:52:02.430Z,23.2
2017-10-29T05:53:02.412Z,22.3
2017-10-29T05:54:02.426Z,21.8
2017-10-29T05:55:02.400Z,21.7
2017-10-29T05:56:03.530Z,21.4
2017-10-29T05:57:02.674Z,21.7
2017-10-29T05:58:02.551Z,21.2
2017-10-29T05:59:02.610Z,20.6
2017-10-29T06:00:02.503Z,20
2017-10-29T06:01:06.051Z,20.3
2017-10-29T06:02:38.188Z,19.7
2017-10-29T06:03:02.535Z,20.2
2017-10-29T06:04:02.405Z,20.4
2017-10-29T06:05:03.150Z,20.9
2017-10-29T06:06:02.754Z,21.2
2017-10-29T06:07:02.690Z,22
2017-10-29T06:08:02.718Z,22.4
2017-10-29T06:09:02.570Z,22.8
2017-10-29T06:10:02.841Z,23.9
2017-10-29T06:11:02.493Z,23.5
2017-10-29T06:12:02.541Z,24.3
2017-10-29T06:13:02.597Z,24.4
2017-10-29T06:14:02.610Z,24.4
2017-10-29T06:15:06.746Z,2.6
2017-10-29T06:16:06.620Z,4.7
2017-10-29T06:17:06.672Z,6.6
2017-10-29T06:18:06.777Z,8.7
2017-10-29T06:19:07.625Z,10.9
2017-10-29T06:20:08.180Z,12.9
2017-10-29T06:21:06.588Z,14
2017-10-29T06:22:07.979Z,15
2017-10-29T06:23:08.634Z,16.3
2017-10-29T06:24:09.559Z,18.2
2017-10-29T06:25:06.690Z,19.7
2017-10-29T06:26:06.630Z,20.7
2017-10-29T06:27:06.807Z,21.9
2017-10-29T06:28:06.723Z,22.6
2017-10-29T06:29:08.884Z,23.1
2017-10-29T06:30:06.987Z,23.2
2017-10-29T06:31:06.628Z,22.9
2017-10-29T06:32:06.589Z,23
2017-10-29T06:33:06.772Z,23.1
2017-10-29T06:34:06.607Z,23.4
2017-10-29T06:35:07.287Z,23.2
2017-10-29T06:36:06.747Z,23.1
2017-10-29T06:37:06.604Z,22.7
2017-10-29T06:38:06.533Z,22.6
2017-10-29T06:39:06.561Z,22.4
2017-10-29T06:40:08.047Z,22
2017-10-29T06:42:11.396Z,2.5
2017-10-29T06:43:11.409Z,4.2
2017-10-29T06:44:11.354Z,5.8
2017-10-29T06:45:11.273Z,6.5
2017-10-29T06:46:12.522Z,7.9
2017-10-29T06:47:11.305Z,9.1
2017-10-29T06:48:11.422Z,10.5
2017-10-29T06:49:11.372Z,12.1
2017-10-29T06:50:14.451Z,13.5
2017-10-29T06:51:11.177Z,14.6
2017-10-29T06:52:11.218Z,15.9
2017-10-29T06:53:11.198Z,16.9
2017-10-29T06:54:13.738Z,17.6
2017-10-29T06:56:25.534Z,2.7
2017-10-29T06:57:25.526Z,5.9
2017-10-29T06:58:25.406Z,8.3
2017-10-29T06:59:27.569Z,9.8
2017-10-29T07:00:25.448Z,11.6
2017-10-29T07:01:25.514Z,12.9
2017-10-29T07:02:25.382Z,13.9
2017-10-29T07:03:25.507Z,15.4
2017-10-29T07:04:25.730Z,16.6
2017-10-29T07:05:25.389Z,17.7
2017-10-29T07:06:25.490Z,18.8
2017-10-29T07:07:25.508Z,19.4
2017-10-29T07:08:25.521Z,19.8
2017-10-29T07:09:25.338Z,20
2017-10-29T07:10:25.597Z,20.3
2017-10-29T07:11:25.486Z,20.7
2017-10-29T07:12:25.503Z,21.4
2017-10-29T07:13:25.464Z,21.6
2017-10-29T07:14:25.481Z,22
2017-10-29T07:15:25.426Z,22.5
2017-10-29T07:16:25.415Z,22.7
2017-10-29T07:17:25.525Z,23.2
2017-10-29T07:18:25.524Z,23
2017-10-29T07:19:26.534Z,22.6
2017-10-29T07:20:25.408Z,22.6
2017-10-29T07:21:25.488Z,23.4
2017-10-29T07:22:25.661Z,23.2
2017-10-29T07:23:26.251Z,23.3
2017-10-29T07:24:25.555Z,22.6
2017-10-29T07:25:25.517Z,22.5
2017-10-29T07:26:25.494Z,22.5
2017-10-29T07:27:25.467Z,22.7
2017-10-29T07:28:25.432Z,22.4
2017-10-29T07:29:25.471Z,21.8
2017-10-29T07:30:25.443Z,21.9
2017-10-29T07:31:25.455Z,21.9
2017-10-29T07:32:25.455Z,22.3
2017-10-29T07:33:25.492Z,22.2
2017-10-29T07:34:25.397Z,22.3
2017-10-29T07:35:25.373Z,22.6
2017-10-29T07:36:25.381Z,23.1
2017-10-29T07:37:25.356Z,22.7
2017-10-29T07:38:25.314Z,22.9
2017-10-29T07:39:25.321Z,23.2
2017-10-29T07:40:25.341Z,23.2
2017-10-29T07:41:25.347Z,23.9
2017-10-29T07:42:25.394Z,23.8
2017-10-29T07:43:25.341Z,23.6
2017-10-29T07:44:25.347Z,23.9
2017-10-29T07:45:25.336Z,23.7
2017-10-29T07:46:25.315Z,23.4
2017-10-29T07:47:25.375Z,24.2
2017-10-29T07:48:25.312Z,24.6
2017-10-29T07:49:25.323Z,24.7
2017-10-29T07:50:25.341Z,24.6
2017-10-29T07:51:25.304Z,24.8
2017-10-29T07:52:25.381Z,24.7
2017-10-29T07:53:25.319Z,24.7
2017-10-29T07:54:25.329Z,25.5
2017-10-29T07:55:25.327Z,25.4
2017-10-29T07:56:25.314Z,25.7
2017-10-29T07:57:25.388Z,25.6
2017-10-29T07:58:25.332Z,25
2017-10-29T07:59:25.304Z,24.8
2017-10-29T08:00:25.319Z,24.8
2017-10-29T08:01:25.317Z,25
2017-10-29T08:02:25.394Z,24.7
2017-10-29T08:03:25.347Z,24.7
2017-10-29T08:04:25.311Z,24.7
2017-10-29T08:05:25.315Z,24.9
2017-10-29T08:06:25.289Z,24.8
2017-10-29T08:07:25.399Z,24.8
2017-10-29T08:08:25.308Z,25
2017-10-29T08:09:25.328Z,24.9
2017-10-29T08:10:25.330Z,24.5
2017-10-29T08:11:25.336Z,24
2017-10-29T08:12:25.372Z,23.3
2017-10-29T08:13:25.310Z,22.7
2017-10-29T08:14:25.311Z,21.9
2017-10-29T08:15:25.326Z,21.3
2017-10-29T08:16:25.321Z,21.3
2017-10-29T08:17:25.334Z,21.1
2017-10-29T08:18:25.333Z,21.6
2017-10-29T08:19:25.318Z,21.4
2017-10-29T08:20:25.310Z,20.9
2017-10-29T08:21:25.331Z,20
2017-10-29T08:22:25.328Z,19.9
2017-10-29T08:23:25.294Z,20.6
2017-10-29T08:24:25.305Z,21
2017-10-29T08:25:25.328Z,20.8
2017-10-29T08:26:25.326Z,20.6
2017-10-29T08:27:25.312Z,20.3
2017-10-29T08:28:25.303Z,20.3
2017-10-29T08:29:25.306Z,21
2017-10-29T08:30:25.310Z,20.9
2017-10-29T08:31:25.340Z,21.4
2017-10-29T08:32:25.329Z,22.1
2017-10-29T08:33:25.333Z,22.3
2017-10-29T08:34:25.329Z,22.8
2017-10-29T08:35:25.302Z,23.6
2017-10-29T08:36:25.314Z,24
2017-10-29T08:37:25.324Z,24.4
2017-10-29T08:38:25.312Z,24.4
2017-10-29T08:39:25.297Z,24.1
2017-10-29T08:40:25.328Z,24.1
2017-10-29T08:41:25.307Z,24.2
2017-10-29T08:42:25.327Z,24.4
2017-10-29T08:43:25.381Z,24.8
2017-10-29T08:44:25.332Z,24.2
2017-10-29T08:45:25.325Z,23.4
2017-10-29T08:46:25.329Z,23.3
2017-10-29T08:47:25.279Z,23.9
2017-10-29T08:48:25.365Z,23.8
2017-10-29T08:49:25.326Z,23.9
2017-10-29T08:50:25.283Z,24
2017-10-29T08:51:25.292Z,24.1
2017-10-29T08:52:25.302Z,24.1
2017-10-29T08:53:29.932Z,23.9
2017-10-29T08:54:25.312Z,24.3
2017-10-29T08:55:25.298Z,24.6
2017-10-29T08:56:25.297Z,24.3
2017-10-29T08:57:25.289Z,23.9
2017-10-29T08:58:25.386Z,24.1
2017-10-29T08:59:25.314Z,23.6
2017-10-29T09:00:25.319Z,23.8
2017-10-29T09:01:25.329Z,24
2017-10-29T09:02:25.317Z,24
2017-10-29T09:03:25.382Z,24.5
2017-10-29T09:04:25.303Z,24
2017-10-29T09:05:25.319Z,23.7
2017-10-29T09:06:25.322Z,23.9
2017-10-29T09:07:25.860Z,24.1
2017-10-29T09:08:25.378Z,24
2017-10-29T09:09:25.316Z,23.8
2017-10-29T09:10:25.327Z,23.6
2017-10-29T09:11:25.318Z,23.3
2017-10-29T09:12:25.293Z,23.5
2017-10-29T09:13:25.387Z,23.7
2017-10-29T09:14:25.326Z,23.4
2017-10-29T09:15:25.303Z,23.1
2017-10-29T09:16:25.303Z,23.4
2017-10-29T09:17:28.492Z,23.6
2017-10-29T09:18:33.227Z,2.1
2017-10-29T09:19:33.202Z,3.7
2017-10-29T09:20:36.421Z,5.3
2017-10-29T09:21:33.201Z,7
2017-10-29T09:22:33.174Z,7.7
2017-10-29T09:23:33.221Z,8.6
2017-10-29T09:24:33.174Z,9.5
2017-10-29T09:25:33.195Z,10.6
2017-10-29T09:26:33.200Z,11
2017-10-29T09:27:33.195Z,11.7
2017-10-29T09:28:33.255Z,12
2017-10-29T09:29:33.194Z,13.1
2017-10-29T09:30:33.186Z,13.8
2017-10-29T09:31:37.363Z,14
2017-10-29T09:32:36.452Z,14.6
2017-10-29T09:33:35.042Z,15.7
2017-10-29T09:34:34.396Z,16.3
2017-10-29T09:35:34.075Z,16
2017-10-29T09:36:34.869Z,16.5
2017-10-29T09:37:41.111Z,17.4
2017-10-29T09:38:33.563Z,18.1
2017-10-29T09:39:33.564Z,19.3
2017-10-29T09:40:33.539Z,19.9
2017-10-29T09:41:33.488Z,20.1
2017-10-29T09:42:33.162Z,19.9
2017-10-29T09:43:33.204Z,20.5
2017-10-29T09:44:33.218Z,20.9
2017-10-29T09:45:33.212Z,21.3
2017-10-29T09:46:33.199Z,21.7
2017-10-29T09:47:33.195Z,22.1
2017-10-29T09:48:33.188Z,22.5
2017-10-29T09:49:33.233Z,23
2017-10-29T09:50:33.196Z,23.4
2017-10-29T09:51:33.183Z,23.9
2017-10-29T09:52:33.177Z,23.7
2017-10-29T09:53:33.199Z,23.6
2017-10-29T09:54:33.240Z,23.1
2017-10-29T09:55:33.169Z,23.4
2017-10-29T09:56:33.193Z,23.7
2017-10-29T09:57:33.196Z,24.8
2017-10-29T09:58:33.200Z,25
2017-10-29T09:59:33.213Z,25.2
2017-10-29T10:00:33.171Z,24.9
2017-10-29T10:01:33.177Z,24.8
2017-10-29T10:02:33.194Z,25.7
2017-10-29T10:03:33.165Z,25.6
2017-10-29T10:04:33.237Z,25.9
2017-10-29T10:05:33.170Z,26
2017-10-29T10:06:33.171Z,26
2017-10-29T10:07:33.193Z,25.8
2017-10-29T10:08:33.167Z,25.3
2017-10-29T10:09:33.241Z,25
2017-10-29T10:10:33.169Z,25.1
2017-10-29T10:11:33.167Z,24.7
2017-10-29T10:12:33.175Z,24.5
2017-10-29T10:13:33.176Z,24.8
2017-10-29T10:14:33.232Z,24.9
2017-10-29T10:15:33.190Z,25.4
2017-10-29T10:16:33.164Z,25.4
2017-10-29T10:17:33.192Z,25.2
2017-10-29T10:18:33.233Z,24.3
2017-10-29T10:19:33.244Z,24.3
2017-10-29T10:20:33.172Z,23.3
2017-10-29T10:21:33.164Z,22.9
2017-10-29T10:22:33.160Z,22.1
2017-10-29T10:23:33.187Z,21.2
2017-10-29T10:24:33.211Z,20.9
2017-10-29T10:25:33.188Z,20.5
2017-10-29T10:26:33.164Z,20.2
2017-10-29T10:27:33.183Z,19.7
2017-10-29T10:28:33.170Z,19.2
2017-10-29T10:29:33.167Z,18.9
2017-10-29T10:30:33.181Z,18.2
2017-10-29T10:31:33.198Z,17.8
2017-10-29T10:32:33.167Z,17.7
2017-10-29T10:33:33.169Z,17.3
2017-10-29T10:34:33.169Z,17.3
2017-10-29T10:35:33.188Z,18.2
2017-10-29T10:36:33.193Z,18.6
2017-10-29T10:37:33.186Z,18.9
2017-10-29T10:38:33.175Z,18.7
2017-10-29T10:39:33.145Z,18.4
2017-10-29T10:40:33.160Z,18.3
2017-10-29T10:41:33.161Z,18.1
2017-10-29T10:42:33.186Z,19.1
2017-10-29T10:43:33.185Z,19.4
2017-10-29T10:44:33.158Z,19.3
2017-10-29T10:45:33.161Z,19.1
2017-10-29T10:46:33.164Z,19.1
2017-10-29T10:47:33.186Z,18.7
2017-10-29T10:48:33.194Z,19.2
2017-10-29T10:49:33.166Z,18.8
2017-10-29T10:50:33.184Z,18.9
2017-10-29T10:51:33.155Z,18.8
2017-10-29T10:52:33.186Z,18.7
2017-10-29T10:53:33.162Z,18.7
2017-10-29T10:54:33.182Z,18.3
2017-10-29T10:55:33.190Z,18.4
2017-10-29T10:56:33.186Z,18.4
2017-10-29T10:57:33.158Z,18.6
2017-10-29T10:58:33.184Z,18.8
2017-10-29T10:59:33.187Z,19
2017-10-29T11:00:33.235Z,18.9
2017-10-29T11:01:33.166Z,18.9
2017-10-29T11:02:33.153Z,18.4
2017-10-29T11:03:33.167Z,18.8
2017-10-29T11:04:33.185Z,19.2
2017-10-29T11:05:33.206Z,19.4
2017-10-29T11:06:33.177Z,19.1
2017-10-29T11:07:33.160Z,19.2
2017-10-29T11:08:33.176Z,19.4
2017-10-29T11:09:33.162Z,19.9
2017-10-29T11:10:33.207Z,20.2
2017-10-29T11:11:33.199Z,20
2017-10-29T11:12:33.168Z,20.4
2017-10-29T11:13:33.162Z,20.3
2017-10-29T11:14:33.187Z,20.1
2017-10-29T11:15:33.250Z,19.6
2017-10-29T11:16:33.190Z,18.8
2017-10-29T11:17:33.196Z,18.4
2017-10-29T11:18:33.163Z,18.7
2017-10-29T11:19:33.184Z,18.4
2017-10-29T11:20:33.247Z,18.3
2017-10-29T11:21:33.164Z,17.6
2017-10-29T11:22:33.198Z,16.8
2017-10-29T11:23:33.180Z,16.4
2017-10-29T11:24:33.162Z,16.6
2017-10-29T11:25:33.223Z,16.6
2017-10-29T11:26:33.187Z,16.2
2017-10-29T11:27:33.163Z,15.9
2017-10-29T11:28:33.191Z,16.5
2017-10-29T11:29:33.159Z,16
2017-10-29T11:30:33.237Z,16.1
2017-10-29T11:31:33.159Z,16.2
2017-10-29T11:32:33.187Z,16.9
2017-10-29T11:33:33.157Z,17.3
2017-10-29T11:34:33.186Z,17.5
2017-10-29T11:35:33.202Z,17.1
2017-10-29T11:36:33.185Z,17.3
2017-10-29T11:37:33.161Z,17.6
2017-10-29T11:38:33.163Z,17.7
2017-10-29T11:39:33.166Z,17.9
2017-10-29T11:40:33.162Z,17.9
2017-10-29T11:41:33.198Z,18.3
2017-10-29T11:42:33.189Z,18.1
2017-10-29T11:43:33.186Z,18.3
2017-10-29T11:44:33.186Z,18.3
2017-10-29T11:45:33.168Z,18
2017-10-29T11:46:33.188Z,17.7
2017-10-29T11:47:33.173Z,17.3
2017-10-29T11:48:33.180Z,16.8
2017-10-29T11:49:33.183Z,16.6
2017-10-29T11:50:33.186Z,16.5
2017-10-29T11:51:33.163Z,16.8
2017-10-29T11:52:33.153Z,17
2017-10-29T11:53:33.182Z,17.4
2017-10-29T11:54:33.158Z,17.4
2017-10-29T11:55:33.160Z,17.3
2017-10-29T11:56:33.280Z,16.9
2017-10-29T11:57:33.193Z,17.3
2017-10-29T11:58:33.188Z,17.1
2017-10-29T11:59:33.170Z,17
2017-10-29T12:00:33.180Z,17.4
2017-10-29T12:01:33.157Z,17.4
2017-10-29T12:02:33.189Z,18.3
2017-10-29T12:03:33.195Z,18.7
2017-10-29T12:04:33.170Z,18.6
2017-10-29T12:05:33.157Z,19.2
2017-10-29T12:06:33.181Z,19.1
2017-10-29T12:07:33.190Z,19
2017-10-29T12:08:33.195Z,19.4
2017-10-29T12:09:33.161Z,20
2017-10-29T12:10:33.177Z,20.3
2017-10-29T12:11:33.221Z,19.9
2017-10-29T12:12:33.179Z,20
2017-10-29T12:13:33.191Z,19.3
2017-10-29T12:14:33.210Z,19.4
2017-10-29T12:15:33.176Z,19.5
2017-10-29T12:16:33.226Z,19.6
2017-10-29T12:17:33.181Z,19.4
2017-10-29T12:18:33.158Z,19.3
2017-10-29T12:19:33.156Z,19.2
2017-10-29T12:20:33.190Z,19.7
2017-10-29T12:21:33.229Z,19.6
2017-10-29T12:22:33.152Z,18.9
2017-10-29T12:23:33.169Z,19.1
2017-10-29T12:24:33.180Z,19.5
2017-10-29T12:25:33.175Z,20.2
2017-10-29T12:26:33.239Z,19.9
2017-10-29T12:27:33.178Z,19.9
2017-10-29T12:28:33.165Z,19.9
2017-10-29T12:29:33.174Z,19
2017-10-29T12:30:33.180Z,19.4
2017-10-29T12:31:33.229Z,19.5
2017-10-29T12:32:33.193Z,19.5
2017-10-29T12:33:33.192Z,19.6
2017-10-29T12:34:33.182Z,18.9
2017-10-29T12:35:33.185Z,18.3
2017-10-29T12:36:33.236Z,17.6
2017-10-29T12:37:33.161Z,17.5
2017-10-29T12:38:33.154Z,17.2
2017-10-29T12:39:33.160Z,17.2
2017-10-29T12:40:33.157Z,17.4
2017-10-29T12:41:33.223Z,18
2017-10-29T12:42:33.165Z,17.9
2017-10-29T12:43:33.188Z,17.8
2017-10-29T12:44:33.160Z,18
2017-10-29T12:45:33.183Z,18.4
2017-10-29T12:46:33.243Z,18.3
2017-10-29T12:47:33.193Z,18.4
2017-10-29T12:48:33.196Z,18.7
2017-10-29T12:49:33.183Z,18.5
2017-10-29T12:50:33.161Z,17.9
2017-10-29T12:51:33.173Z,17.7
2017-10-29T12:52:33.225Z,17.1
2017-10-29T12:53:33.195Z,17.2
2017-10-29T12:54:33.160Z,16.7
2017-10-29T12:55:33.169Z,16.7
2017-10-29T12:56:33.206Z,17.2
2017-10-29T12:57:33.162Z,17.8
2017-10-29T12:58:33.185Z,17.6
2017-10-29T12:59:33.220Z,18.3
2017-10-29T13:00:33.226Z,18.8
2017-10-29T13:01:33.228Z,18.4
2017-10-29T13:02:33.176Z,18
2017-10-29T13:03:33.208Z,17.3
2017-10-29T13:04:33.158Z,16.9
2017-10-29T13:05:33.199Z,16
2017-10-29T13:06:33.211Z,14.9
2017-10-29T13:07:33.213Z,14.3
2017-10-29T13:08:33.221Z,14.3
2017-10-29T13:09:33.176Z,13.7
2017-10-29T13:10:33.161Z,13.6
2017-10-29T13:11:33.157Z,13.5
2017-10-29T13:12:33.193Z,12.9
2017-10-29T13:13:33.219Z,12.4
2017-10-29T13:14:33.181Z,12.1
2017-10-29T13:15:33.202Z,12.2
2017-10-29T13:16:33.164Z,12.7
2017-10-29T13:17:33.208Z,12.9
2017-10-29T13:18:33.181Z,13
2017-10-29T13:19:33.202Z,12.7
2017-10-29T13:20:33.181Z,13.1
2017-10-29T13:21:33.147Z,13.9
2017-10-29T13:22:33.158Z,14.4
2017-10-29T13:23:33.185Z,14.9
2017-10-29T13:24:33.173Z,14.8
2017-10-29T13:25:33.148Z,14.4
2017-10-29T13:26:33.142Z,14.8
2017-10-29T13:27:33.154Z,15.2
2017-10-29T13:28:33.189Z,15.4